createdAt,value
2018-02-21T00:01:26.039Z,4.95
2018-02-21T00:03:53.664Z,4.94
2018-02-21T00:06:21.218Z,4.97
2018-02-21T00:08:48.774Z,4.94
2018-02-21T00:11:16.341Z,4.93
2018-02-21T00:13:44.134Z,4.94
2018-02-21T00:16:11.713Z,4.92
2018-02-21T00:18:39.273Z,4.95
2018-02-21T00:21:06.924Z,4.96
2018-02-21T00:23:34.482Z,4.97
2018-02-21T00:26:02.043Z,5.00
2018-02-21T00:28:29.618Z,4.99
2018-02-21T00:30:57.186Z,4.98
2018-02-21T00:33:24.975Z,4.98
2018-02-21T00:35:52.538Z,5.00
2018-02-21T00:38:20.150Z,5.03
2018-02-21T00:40:47.707Z,5.02
2018-02-21T00:43:15.418Z,5.04
2018-02-21T00:45:43.062Z,5.03
2018-02-21T00:48:10.627Z,5.04
2018-02-21T00:50:38.370Z,5.04
2018-02-21T00:53:06.087Z,5.05
2018-02-21T00:55:33.727Z,5.05
2018-02-21T00:58:01.292Z,5.04
2018-02-21T01:00:28.859Z,5.04
2018-02-21T01:02:56.481Z,5.08
2018-02-21T01:05:24.069Z,5.07
2018-02-21T01:07:51.826Z,5.10
2018-02-21T01:10:19.524Z,5.10
2018-02-21T01:12:47.150Z,5.09
2018-02-21T01:15:14.714Z,5.10
2018-02-21T01:17:42.330Z,5.11
2018-02-21T01:20:10.116Z,5.08
2018-02-21T01:22:37.938Z,5.09
2018-02-21T01:25:05.489Z,5.07
2018-02-21T01:27:33.281Z,5.07
2018-02-21T01:30:00.846Z,4.99
2018-02-21T01:32:28.606Z,5.04
2018-02-21T01:34:56.457Z,5.05
2018-02-21T01:37:24.022Z,5.05
2018-02-21T01:39:51.563Z,5.04
2018-02-21T01:42:19.135Z,5.03
2018-02-21T01:44:46.695Z,5.10
2018-02-21T01:47:14.262Z,5.10
2018-02-21T01:49:41.816Z,5.13
2018-02-21T01:52:09.382Z,5.09
2018-02-21T01:54:36.933Z,5.11
2018-02-21T01:57:04.559Z,5.06
2018-02-21T01:59:32.109Z,5.07
2018-02-21T02:01:59.671Z,5.08
2018-02-21T02:04:27.438Z,5.11
2018-02-21T02:06:55.160Z,5.11
2018-02-21T02:09:22.895Z,5.08
2018-02-21T02:11:50.692Z,5.09
2018-02-21T02:14:18.301Z,5.10
2018-02-21T02:16:46.009Z,5.09
2018-02-21T02:19:13.606Z,5.09
2018-02-21T02:21:41.366Z,5.14
2018-02-21T02:24:08.921Z,5.11
2018-02-21T02:26:36.498Z,5.15
2018-02-21T02:29:04.057Z,5.16
2018-02-21T02:31:31.936Z,5.15
2018-02-21T02:33:59.496Z,5.18
2018-02-21T02:36:27.056Z,5.19
2018-02-21T02:39:06.440Z,5.19
